This is the latest recevied weather packets stored in our database for station/object KE2LU. If no packets are shown the sender has not sent any weather packets the latest 10 day(s).
| Time | Temp. | Humidity | Pressure | Rain* | Wind** | Luminosity | Snow |
|---|---|---|---|---|---|---|---|
| 1777512903 | 7.22° C | 99% | 1007.3 hPa | 0.51 mm | - | - | - |
| 1777509603 | 6.67° C | 98% | 1006.8 hPa | 0.76 mm | - | - | - |
| 1777507803 | 7.22° C | 99% | 1006.4 hPa | 2.54 mm | - | - | - |
| 1777507502 | 7.22° C | 98% | 1006.5 hPa | 3.56 mm | - | - | - |
| 1777506903 | 7.22° C | 98% | 1006.3 hPa | 5.33 mm | - | - | - |
| 1777505103 | 7.22° C | 98% | 1007 hPa | 9.4 mm | - | - | - |
| 1777504203 | 7.22° C | 98% | 1007.2 hPa | 9.4 mm | - | - | - |
| 1777503603 | 7.22° C | 97% | 1006.9 hPa | 8.38 mm | - | - | - |
| 1777503003 | 7.78° C | 97% | 1006.9 hPa | 6.86 mm | - | - | - |
| 1777494903 | 8.89° C | 97% | 1007.4 hPa | 3.05 mm | - | - | - |
| 1777490704 | 9.44° C | 95% | 1008.4 hPa | 2.79 mm | - | - | - |
| 1777484103 | 11.11° C | 88% | 1009.7 hPa | 0 mm | - | - | - |
| 1777481103 | 11.67° C | 86% | 1010.1 hPa | 0 mm | - | - | - |
| 1777477804 | 13.33° C | 83% | 1011.2 hPa | 0 mm | - | - | - |
| 1777474204 | 16.11° C | 78% | 1011.4 hPa | 0 mm | - | - | - |
| 1777473604 | 15.56° C | 79% | 1011.1 hPa | 0 mm | - | - | - |
| 1777470604 | 13.33° C | 86% | 1011.5 hPa | 0 mm | - | - | - |
| 1777465802 | 13.33° C | 85% | 1012.6 hPa | 0 mm | - | - | - |
| 1777464902 | 13.33° C | 86% | 1012.5 hPa | 0 mm | - | - | - |
| 1777464302 | 12.78° C | 88% | 1012.4 hPa | 0 mm | - | - | - |
| 1777463702 | 12.78° C | 88% | 1012.4 hPa | 0 mm | - | - | - |
| 1777458002 | 11.67° C | 90% | 1012.7 hPa | 0 mm | - | - | - |
| 1777457702 | 11.67° C | 90% | 1013 hPa | 0 mm | - | - | - |
| 1777455302 | 11.67° C | 89% | 1012.8 hPa | 0 mm | - | - | - |
| 1777455002 | 11.67° C | 89% | 1012.8 hPa | 0 mm | - | - | - |
* Rain latest hour (hover to see other rain measurements)
** Current wind speed in m/s (hover to see current wind gust speed)